Perry, Utah
Current Conditions -  °F | °C
As of 11:55 PM on Thursday 27 Nov 2014 (Local Time) from KBMC Reporting Station
Clear Clear  
Wind Chill: 36°   Ceiling: Unl
Heat Index: 36°   Visibility: 10mi
Dew Point: 31°   Wind: 0mph
Humidity: 80%   Direction: NA
Pressure: 30.12"   Gusts: NA
Location:  41.4833°N, 112.095°W
Report Text: KBMC 280655Z AUTO 00000KT 10SM CLR 02/M01 A3012 RMK AO1 T00231008 401360021
Loading
Personal Weather Stations






























Interactive Weather Map New forecast layout! Learn more

10-Day Weather Forecast

Advertisements
Track Severe Weather on mobile